Weather at Buffalo General Hospital Heliport

Public forecast

Using degrees Fahrenheit for public forecast. Weather courtesy of forecast.io.

Closest aviation weather report (METAR) to Buffalo General Hospital Heliport

Closest report is Buffalo Niagara International Airport, 6.4 nm (11.8 km) ENE.

2024/05/30 20:54 (retrieved 43 minutes ago)

KBUF 302054Z 34006G16KT 10SM FEW065 FEW270 18/01 A3014 RMK AO2 SLP208 T01830006 53001

Closest aviation forecast (TAF) to Buffalo General Hospital Heliport

Closest forecast is Buffalo Niagara International Airport, 6.4 nm (11.8 km) ENE.

2024/05/30 18:30 (retrieved 3 hours ago)

TAF KBUF 301729Z 3018/3118 35012KT P6SM FEW050 FM302200 33007KT P6SM SKC FM310100 30004KT P6SM SKC FM311500 27006KT P6SM SKC